CSH6629 VHHH-ZSPD
Flight info
| Callsign | CSH6629 |
|---|---|
| Flight time | 1h 47m |
| Altitude | 35000 |
| Route | LEKEN V601 DOTMI/K0900S1010 A470 LJG B221 SHZ W58 BK BK83A |
| Aircraft | MD11/H-SDE1E2E3FGHIJ2J3J4J5M1RWXY/LB1D1 |
Departure
| Time | 2026-05-04 12:23 |
|---|---|
| Airport | Hong Kong International Airport (VHHH) |
Arrival
| Time | 2026-05-04 14:10 |
|---|---|
| Airport | Shanghai Pudong International Airport (ZSPD) |
| Time | Latitude | Longitude | Altitude | Speed | Heading |
|---|---|---|---|---|---|
| 2026-05-04 11:49 | 22.30008 | 113.92562 | 37 ft | 0 kts | 162° |
| 2026-05-04 12:10 | 22.30016 | 113.92560 | 38 ft | 2 kts | 162° |
| 2026-05-04 12:10 | 22.30031 | 113.92554 | 38 ft | 2 kts | 167° |
| 2026-05-04 12:11 | 22.30045 | 113.92553 | 38 ft | 2 kts | 180° |
| 2026-05-04 12:11 | 22.30060 | 113.92554 | 38 ft | 2 kts | 190° |
| 2026-05-04 12:11 | 22.30074 | 113.92558 | 38 ft | 2 kts | 201° |
| 2026-05-04 12:11 | 22.30088 | 113.92565 | 38 ft | 2 kts | 212° |
| 2026-05-04 12:12 | 22.30100 | 113.92575 | 38 ft | 2 kts | 223° |
| 2026-05-04 12:12 | 22.30110 | 113.92587 | 38 ft | 2 kts | 234° |
| 2026-05-04 12:12 | 22.30118 | 113.92600 | 38 ft | 2 kts | 244° |
| 2026-05-04 12:12 | 22.30122 | 113.92609 | 38 ft | 0 kts | 251° |
| 2026-05-04 12:13 | 22.30123 | 113.92612 | 38 ft | 0 kts | 252° |
| 2026-05-04 12:16 | 22.30121 | 113.92606 | 37 ft | 3 kts | 252° |
| 2026-05-04 12:16 | 22.30104 | 113.92551 | 37 ft | 10 kts | 252° |
| 2026-05-04 12:16 | 22.30080 | 113.92472 | 38 ft | 11 kts | 252° |
| 2026-05-04 12:17 | 22.30053 | 113.92387 | 38 ft | 12 kts | 251° |
| 2026-05-04 12:17 | 22.30023 | 113.92294 | 37 ft | 13 kts | 251° |
| 2026-05-04 12:17 | 22.29993 | 113.92199 | 37 ft | 13 kts | 251° |
| 2026-05-04 12:17 | 22.29960 | 113.92097 | 38 ft | 14 kts | 251° |
| 2026-05-04 12:18 | 22.29926 | 113.91990 | 38 ft | 15 kts | 251° |
| 2026-05-04 12:18 | 22.29889 | 113.91876 | 38 ft | 16 kts | 251° |
| 2026-05-04 12:18 | 22.29879 | 113.91773 | 38 ft | 13 kts | 298° |
| 2026-05-04 12:18 | 22.29958 | 113.91727 | 38 ft | 13 kts | 342° |
| 2026-05-04 12:19 | 22.30025 | 113.91686 | 38 ft | 9 kts | 298° |
| 2026-05-04 12:19 | 22.30023 | 113.91614 | 38 ft | 10 kts | 254° |
| 2026-05-04 12:19 | 22.29989 | 113.91506 | 38 ft | 20 kts | 250° |
| 2026-05-04 12:19 | 22.29932 | 113.91329 | 38 ft | 27 kts | 252° |
| 2026-05-04 12:20 | 22.29869 | 113.91133 | 37 ft | 27 kts | 251° |
| 2026-05-04 12:20 | 22.29806 | 113.90936 | 37 ft | 27 kts | 252° |
| 2026-05-04 12:20 | 22.29745 | 113.90739 | 38 ft | 27 kts | 249° |
| 2026-05-04 12:20 | 22.29680 | 113.90553 | 37 ft | 26 kts | 250° |
| 2026-05-04 12:21 | 22.29623 | 113.90365 | 37 ft | 26 kts | 251° |
| 2026-05-04 12:21 | 22.29562 | 113.90179 | 37 ft | 26 kts | 251° |
| 2026-05-04 12:21 | 22.29505 | 113.90002 | 37 ft | 23 kts | 253° |
| 2026-05-04 12:21 | 22.29528 | 113.89858 | 37 ft | 19 kts | 322° |
| 2026-05-04 12:22 | 22.29638 | 113.89881 | 37 ft | 18 kts | 60° |
| 2026-05-04 12:22 | 22.29693 | 113.90029 | 37 ft | 28 kts | 71° |
| 2026-05-04 12:22 | 22.29838 | 113.90484 | 38 ft | 103 kts | 71° |
| 2026-05-04 12:22 | 22.30158 | 113.91484 | 49 ft | 168 kts | 72° |
| 2026-05-04 12:23 | 22.30498 | 113.92698 | 596 ft | 170 kts | 73° |
| 2026-05-04 12:23 | 22.30842 | 113.93912 | 1287 ft | 170 kts | 71° |
| 2026-05-04 12:23 | 22.31234 | 113.95077 | 2049 ft | 167 kts | 71° |
| 2026-05-04 12:23 | 22.31693 | 113.96330 | 2273 ft | 194 kts | 70° |
| 2026-05-04 12:24 | 22.32180 | 113.97787 | 2655 ft | 215 kts | 72° |
| 2026-05-04 12:24 | 22.32656 | 113.99320 | 3364 ft | 220 kts | 71° |
| 2026-05-04 12:24 | 22.33168 | 114.00877 | 4130 ft | 222 kts | 71° |
| 2026-05-04 12:24 | 22.33679 | 114.02460 | 4810 ft | 227 kts | 75° |
| 2026-05-04 12:25 | 22.33903 | 114.04167 | 5410 ft | 234 kts | 95° |
| 2026-05-04 12:25 | 22.33536 | 114.05873 | 6014 ft | 239 kts | 117° |
| 2026-05-04 12:25 | 22.32578 | 114.07352 | 6653 ft | 242 kts | 139° |
| 2026-05-04 12:25 | 22.31175 | 114.08411 | 7093 ft | 253 kts | 159° |
| 2026-05-04 12:26 | 22.29479 | 114.08946 | 7649 ft | 259 kts | 178° |
| 2026-05-04 12:26 | 22.27640 | 114.08935 | 8200 ft | 270 kts | 187° |
| 2026-05-04 12:26 | 22.25716 | 114.08804 | 8824 ft | 283 kts | 186° |
| 2026-05-04 12:26 | 22.23740 | 114.08725 | 9622 ft | 289 kts | 185° |
| 2026-05-04 12:27 | 22.21707 | 114.08679 | 10395 ft | 297 kts | 184° |
| 2026-05-04 12:27 | 22.19536 | 114.08968 | 10529 ft | 333 kts | 168° |
| 2026-05-04 12:27 | 22.17270 | 114.09959 | 10673 ft | 368 kts | 154° |
| 2026-05-04 12:27 | 22.15114 | 114.11633 | 10922 ft | 396 kts | 139° |
| 2026-05-04 12:28 | 22.13135 | 114.13756 | 11566 ft | 408 kts | 138° |
| 2026-05-04 12:28 | 22.11094 | 114.15917 | 12364 ft | 414 kts | 139° |
| 2026-05-04 12:28 | 22.09017 | 114.18130 | 13162 ft | 420 kts | 139° |
| 2026-05-04 12:28 | 22.06928 | 114.20370 | 13970 ft | 425 kts | 138° |
| 2026-05-04 12:29 | 22.04819 | 114.22637 | 14708 ft | 430 kts | 138° |
| 2026-05-04 12:29 | 22.02705 | 114.24915 | 15427 ft | 436 kts | 138° |
| 2026-05-04 12:29 | 22.00548 | 114.27240 | 16137 ft | 441 kts | 137° |
| 2026-05-04 12:29 | 21.98362 | 114.29600 | 16791 ft | 447 kts | 137° |
| 2026-05-04 12:30 | 21.96167 | 114.31969 | 17449 ft | 452 kts | 137° |
| 2026-05-04 12:30 | 21.93924 | 114.34392 | 18098 ft | 458 kts | 137° |
| 2026-05-04 12:30 | 21.91651 | 114.36850 | 18757 ft | 462 kts | 137° |
| 2026-05-04 12:30 | 21.89369 | 114.39337 | 19384 ft | 467 kts | 135° |
| 2026-05-04 12:31 | 21.87395 | 114.42120 | 19929 ft | 477 kts | 123° |
| 2026-05-04 12:31 | 21.85986 | 114.45355 | 20528 ft | 484 kts | 110° |
| 2026-05-04 12:31 | 21.85224 | 114.48923 | 21103 ft | 490 kts | 97° |
| 2026-05-04 12:31 | 21.85152 | 114.52564 | 21658 ft | 495 kts | 86° |
| 2026-05-04 12:32 | 21.85504 | 114.56276 | 22257 ft | 499 kts | 84° |
| 2026-05-04 12:32 | 21.86232 | 114.63736 | 23351 ft | 507 kts | 85° |
| 2026-05-04 12:32 | 21.86548 | 114.67524 | 23848 ft | 512 kts | 86° |
| 2026-05-04 12:33 | 21.86847 | 114.71354 | 24349 ft | 516 kts | 86° |
| 2026-05-04 12:33 | 21.87142 | 114.75217 | 24839 ft | 520 kts | 86° |
| 2026-05-04 12:33 | 21.87433 | 114.79056 | 25309 ft | 524 kts | 86° |
| 2026-05-04 12:33 | 21.87731 | 114.83006 | 25788 ft | 528 kts | 86° |
| 2026-05-04 12:34 | 21.88031 | 114.86915 | 26267 ft | 531 kts | 86° |
| 2026-05-04 12:34 | 21.88334 | 114.90879 | 26777 ft | 533 kts | 86° |
| 2026-05-04 12:34 | 21.88587 | 114.94857 | 27192 ft | 537 kts | 89° |
| 2026-05-04 12:34 | 21.88694 | 114.98868 | 27606 ft | 541 kts | 90° |
| 2026-05-04 12:35 | 21.88782 | 115.02932 | 28069 ft | 544 kts | 90° |
| 2026-05-04 12:35 | 21.88880 | 115.06992 | 28616 ft | 544 kts | 89° |
| 2026-05-04 12:35 | 21.88992 | 115.11053 | 29257 ft | 543 kts | 89° |
| 2026-05-04 12:35 | 21.89110 | 115.15092 | 29755 ft | 544 kts | 89° |
| 2026-05-04 12:36 | 21.89237 | 115.19142 | 30318 ft | 544 kts | 89° |
| 2026-05-04 12:36 | 21.89364 | 115.23220 | 30858 ft | 544 kts | 89° |
| 2026-05-04 12:36 | 21.89494 | 115.27237 | 31340 ft | 545 kts | 89° |
| 2026-05-04 12:36 | 21.89619 | 115.31314 | 31818 ft | 545 kts | 89° |
| 2026-05-04 12:37 | 21.89730 | 115.35387 | 32307 ft | 545 kts | 89° |
| 2026-05-04 12:37 | 21.89843 | 115.39504 | 32770 ft | 545 kts | 89° |
| 2026-05-04 12:37 | 21.89956 | 115.43551 | 33259 ft | 545 kts | 89° |
| 2026-05-04 12:37 | 21.90073 | 115.47604 | 33775 ft | 543 kts | 89° |
| 2026-05-04 12:38 | 21.90196 | 115.51653 | 34275 ft | 541 kts | 89° |
| 2026-05-04 12:38 | 21.90316 | 115.55701 | 34725 ft | 540 kts | 88° |
| 2026-05-04 12:38 | 21.90532 | 115.59732 | 35047 ft | 541 kts | 85° |
| 2026-05-04 12:39 | 21.91574 | 115.67697 | 35051 ft | 540 kts | 78° |
| 2026-05-04 12:39 | 21.93165 | 115.75658 | 35052 ft | 539 kts | 77° |
| 2026-05-04 12:40 | 21.94748 | 115.83522 | 35050 ft | 538 kts | 77° |
| 2026-05-04 12:40 | 21.96320 | 115.91404 | 35047 ft | 539 kts | 77° |
| 2026-05-04 12:41 | 21.97894 | 115.99277 | 35038 ft | 539 kts | 76° |
| 2026-05-04 12:41 | 22.00563 | 116.06743 | 35041 ft | 537 kts | 57° |
| 2026-05-04 12:42 | 22.05152 | 116.13042 | 35045 ft | 529 kts | 38° |
| 2026-05-04 12:42 | 22.11119 | 116.17501 | 35051 ft | 517 kts | 20° |
| 2026-05-04 12:43 | 22.17905 | 116.19786 | 35050 ft | 501 kts | 1° |
| 2026-05-04 12:43 | 22.24743 | 116.19738 | 35056 ft | 483 kts | 343° |
| 2026-05-04 12:44 | 22.31369 | 116.18573 | 35057 ft | 486 kts | 347° |
| 2026-05-04 12:44 | 22.38164 | 116.18025 | 35062 ft | 489 kts | 351° |
| 2026-05-04 12:45 | 22.44967 | 116.17728 | 35060 ft | 489 kts | 351° |
| 2026-05-04 12:45 | 22.51742 | 116.17497 | 35051 ft | 488 kts | 351° |
| 2026-05-04 12:46 | 22.58551 | 116.17278 | 35056 ft | 488 kts | 351° |
| 2026-05-04 12:46 | 22.65345 | 116.17106 | 35053 ft | 492 kts | 355° |
| 2026-05-04 12:47 | 22.72228 | 116.18451 | 35061 ft | 511 kts | 14° |
| 2026-05-04 12:47 | 22.78610 | 116.22070 | 35057 ft | 525 kts | 32° |
| 2026-05-04 12:48 | 22.84331 | 116.27030 | 35066 ft | 527 kts | 34° |
| 2026-05-04 12:48 | 22.90088 | 116.31940 | 35071 ft | 526 kts | 33° |
| 2026-05-04 12:49 | 22.95859 | 116.36758 | 35075 ft | 526 kts | 32° |
| 2026-05-04 12:49 | 23.01690 | 116.41601 | 35066 ft | 525 kts | 32° |
| 2026-05-04 12:50 | 23.07456 | 116.46382 | 35059 ft | 526 kts | 32° |
| 2026-05-04 12:50 | 23.13285 | 116.51216 | 35067 ft | 526 kts | 32° |
| 2026-05-04 12:51 | 23.19096 | 116.56036 | 35074 ft | 527 kts | 32° |
| 2026-05-04 12:51 | 23.24941 | 116.60885 | 35074 ft | 527 kts | 32° |
| 2026-05-04 12:52 | 23.30778 | 116.65726 | 35076 ft | 527 kts | 32° |
| 2026-05-04 12:52 | 23.36615 | 116.70555 | 35075 ft | 527 kts | 32° |
| 2026-05-04 12:53 | 23.42372 | 116.75480 | 35080 ft | 530 kts | 36° |
| 2026-05-04 12:53 | 23.47796 | 116.80936 | 35084 ft | 536 kts | 41° |
| 2026-05-04 12:54 | 23.52968 | 116.86801 | 35076 ft | 537 kts | 42° |
| 2026-05-04 12:54 | 23.58121 | 116.92677 | 35076 ft | 537 kts | 42° |
| 2026-05-04 12:55 | 23.63321 | 116.98590 | 35085 ft | 536 kts | 41° |
| 2026-05-04 12:55 | 23.68467 | 117.04430 | 35090 ft | 538 kts | 41° |
| 2026-05-04 12:56 | 23.73661 | 117.10316 | 35084 ft | 538 kts | 40° |
| 2026-05-04 12:56 | 23.79028 | 117.16017 | 35083 ft | 536 kts | 38° |
| 2026-05-04 12:57 | 23.84559 | 117.21487 | 35097 ft | 535 kts | 37° |
| 2026-05-04 12:57 | 23.90085 | 117.26914 | 35099 ft | 535 kts | 37° |
| 2026-05-04 12:58 | 23.95613 | 117.32352 | 35102 ft | 535 kts | 37° |
| 2026-05-04 12:58 | 24.01159 | 117.37801 | 35095 ft | 536 kts | 37° |
| 2026-05-04 12:59 | 24.06699 | 117.43240 | 35108 ft | 537 kts | 37° |
| 2026-05-04 12:59 | 24.12246 | 117.48761 | 35118 ft | 538 kts | 38° |
| 2026-05-04 13:00 | 24.17512 | 117.54547 | 35127 ft | 542 kts | 42° |
| 2026-05-04 13:00 | 24.22640 | 117.60699 | 35121 ft | 543 kts | 43° |
| 2026-05-04 13:01 | 24.27710 | 117.66829 | 35113 ft | 543 kts | 43° |
| 2026-05-04 13:01 | 24.32790 | 117.72953 | 35114 ft | 543 kts | 43° |
| 2026-05-04 13:02 | 24.37869 | 117.79071 | 35110 ft | 544 kts | 43° |
| 2026-05-04 13:02 | 24.42976 | 117.85222 | 35121 ft | 544 kts | 43° |
| 2026-05-04 13:03 | 24.48056 | 117.91335 | 35128 ft | 544 kts | 43° |
| 2026-05-04 13:03 | 24.53155 | 117.97469 | 35134 ft | 544 kts | 43° |
| 2026-05-04 13:04 | 24.58303 | 118.03631 | 35141 ft | 544 kts | 41° |
| 2026-05-04 13:04 | 24.63583 | 118.09583 | 35137 ft | 544 kts | 40° |
| 2026-05-04 13:05 | 24.68890 | 118.15558 | 35128 ft | 545 kts | 41° |
| 2026-05-04 13:05 | 24.74029 | 118.21418 | 35135 ft | 545 kts | 41° |
| 2026-05-04 13:06 | 24.79286 | 118.27449 | 35141 ft | 546 kts | 41° |
| 2026-05-04 13:06 | 24.84556 | 118.33492 | 35142 ft | 546 kts | 41° |
| 2026-05-04 13:07 | 24.89803 | 118.39500 | 35145 ft | 546 kts | 41° |
| 2026-05-04 13:07 | 24.95083 | 118.45536 | 35143 ft | 546 kts | 41° |
| 2026-05-04 13:08 | 25.00352 | 118.51561 | 35153 ft | 546 kts | 41° |
| 2026-05-04 13:08 | 25.05680 | 118.57644 | 35166 ft | 549 kts | 41° |
| 2026-05-04 13:09 | 25.10945 | 118.63681 | 35159 ft | 549 kts | 42° |
| 2026-05-04 13:09 | 25.16098 | 118.69934 | 35158 ft | 550 kts | 43° |
| 2026-05-04 13:10 | 25.21235 | 118.76189 | 35154 ft | 551 kts | 43° |
| 2026-05-04 13:10 | 25.26413 | 118.82462 | 35144 ft | 551 kts | 43° |
| 2026-05-04 13:11 | 25.31579 | 118.88696 | 35149 ft | 553 kts | 43° |
| 2026-05-04 13:11 | 25.36769 | 118.94932 | 35159 ft | 554 kts | 42° |
| 2026-05-04 13:12 | 25.42107 | 119.01154 | 35159 ft | 554 kts | 42° |
| 2026-05-04 13:12 | 25.47410 | 119.07362 | 35160 ft | 553 kts | 42° |
| 2026-05-04 13:13 | 25.52711 | 119.13580 | 35168 ft | 554 kts | 42° |
| 2026-05-04 13:13 | 25.57980 | 119.19764 | 35164 ft | 554 kts | 41° |
| 2026-05-04 13:14 | 25.63312 | 119.26002 | 35169 ft | 555 kts | 41° |
| 2026-05-04 13:14 | 25.68632 | 119.32234 | 35168 ft | 554 kts | 41° |
| 2026-05-04 13:15 | 25.74312 | 119.37848 | 35173 ft | 543 kts | 26° |
| 2026-05-04 13:15 | 25.81026 | 119.41398 | 35175 ft | 526 kts | 7° |
| 2026-05-04 13:16 | 25.88076 | 119.43467 | 35164 ft | 522 kts | 6° |
| 2026-05-04 13:16 | 25.95099 | 119.45702 | 35166 ft | 524 kts | 8° |
| 2026-05-04 13:17 | 26.02096 | 119.48065 | 35164 ft | 524 kts | 8° |
| 2026-05-04 13:17 | 26.09090 | 119.50450 | 35177 ft | 526 kts | 8° |
| 2026-05-04 13:18 | 26.16056 | 119.52828 | 35171 ft | 526 kts | 8° |
| 2026-05-04 13:18 | 26.22954 | 119.55801 | 35181 ft | 537 kts | 17° |
| 2026-05-04 13:19 | 26.29528 | 119.60015 | 35195 ft | 547 kts | 25° |
| 2026-05-04 13:19 | 26.35949 | 119.64558 | 35187 ft | 549 kts | 25° |
| 2026-05-04 13:20 | 26.42419 | 119.69116 | 35185 ft | 549 kts | 25° |
| 2026-05-04 13:20 | 26.48902 | 119.73666 | 35187 ft | 550 kts | 25° |
| 2026-05-04 13:21 | 26.55355 | 119.78207 | 35192 ft | 550 kts | 25° |
| 2026-05-04 13:21 | 26.61861 | 119.82794 | 35190 ft | 550 kts | 25° |
| 2026-05-04 13:22 | 26.68343 | 119.87355 | 35191 ft | 551 kts | 25° |
| 2026-05-04 13:22 | 26.74858 | 119.91941 | 35181 ft | 553 kts | 25° |
| 2026-05-04 13:23 | 26.81419 | 119.96558 | 35199 ft | 555 kts | 25° |
| 2026-05-04 13:23 | 26.87979 | 120.01173 | 35197 ft | 555 kts | 25° |
| 2026-05-04 13:24 | 26.94503 | 120.05808 | 35187 ft | 555 kts | 25° |
| 2026-05-04 13:24 | 27.01031 | 120.10448 | 35187 ft | 556 kts | 25° |
| 2026-05-04 13:25 | 27.10832 | 120.17404 | 35186 ft | 554 kts | 25° |
| 2026-05-04 13:25 | 27.17360 | 120.22027 | 35188 ft | 555 kts | 24° |
| 2026-05-04 13:26 | 27.23894 | 120.26643 | 35175 ft | 556 kts | 25° |
| 2026-05-04 13:26 | 27.30481 | 120.31291 | 35160 ft | 557 kts | 25° |
| 2026-05-04 13:27 | 27.37035 | 120.35921 | 35165 ft | 559 kts | 24° |
| 2026-05-04 13:27 | 27.43654 | 120.40633 | 35175 ft | 558 kts | 25° |
| 2026-05-04 13:28 | 27.50203 | 120.45309 | 35184 ft | 559 kts | 25° |
| 2026-05-04 13:28 | 27.56797 | 120.50011 | 35174 ft | 559 kts | 25° |
| 2026-05-04 13:29 | 27.63389 | 120.54707 | 35170 ft | 559 kts | 25° |
| 2026-05-04 13:29 | 27.69988 | 120.59405 | 35161 ft | 558 kts | 23° |
| 2026-05-04 13:30 | 27.76944 | 120.62922 | 35165 ft | 536 kts | 4° |
| 2026-05-04 13:30 | 27.80550 | 120.63758 | 35182 ft | 523 kts | 355° |
| 2026-05-04 13:30 | 27.84200 | 120.64105 | 35169 ft | 515 kts | 351° |
| 2026-05-04 13:31 | 27.91374 | 120.64587 | 35167 ft | 517 kts | 352° |
| 2026-05-04 13:31 | 27.98542 | 120.65199 | 35160 ft | 516 kts | 353° |
| 2026-05-04 13:32 | 28.05729 | 120.65862 | 35170 ft | 517 kts | 353° |
| 2026-05-04 13:32 | 28.12958 | 120.66584 | 35161 ft | 517 kts | 353° |
| 2026-05-04 13:33 | 28.20087 | 120.67288 | 35153 ft | 516 kts | 353° |
| 2026-05-04 13:33 | 28.27268 | 120.67991 | 35145 ft | 516 kts | 353° |
| 2026-05-04 13:34 | 28.34423 | 120.68694 | 35158 ft | 516 kts | 353° |
| 2026-05-04 13:34 | 28.41538 | 120.69393 | 35158 ft | 515 kts | 353° |
| 2026-05-04 13:35 | 28.52249 | 120.70461 | 35157 ft | 515 kts | 354° |
| 2026-05-04 13:36 | 28.59402 | 120.71186 | 35158 ft | 514 kts | 354° |
| 2026-05-04 13:36 | 28.66520 | 120.71899 | 35158 ft | 514 kts | 353° |
| 2026-05-04 13:37 | 28.73715 | 120.72651 | 35148 ft | 513 kts | 354° |
| 2026-05-04 13:37 | 28.80886 | 120.73451 | 35151 ft | 514 kts | 354° |
| 2026-05-04 13:38 | 28.87984 | 120.74231 | 35137 ft | 512 kts | 354° |
| 2026-05-04 13:38 | 28.95082 | 120.74964 | 35129 ft | 510 kts | 353° |
| 2026-05-04 13:39 | 29.02176 | 120.75691 | 35134 ft | 510 kts | 354° |
| 2026-05-04 13:39 | 29.09278 | 120.76427 | 35136 ft | 510 kts | 354° |
| 2026-05-04 13:40 | 29.16291 | 120.77159 | 35121 ft | 511 kts | 354° |
| 2026-05-04 13:40 | 29.23367 | 120.77897 | 35132 ft | 511 kts | 354° |
| 2026-05-04 13:41 | 29.30464 | 120.78637 | 35143 ft | 509 kts | 353° |
| 2026-05-04 13:41 | 29.37511 | 120.79366 | 35130 ft | 507 kts | 354° |
| 2026-05-04 13:42 | 29.48022 | 120.80460 | 35116 ft | 507 kts | 354° |
| 2026-05-04 13:42 | 29.51572 | 120.80963 | 35108 ft | 518 kts | 0° |
| 2026-05-04 13:42 | 29.55092 | 120.82034 | 35115 ft | 533 kts | 9° |
| 2026-05-04 13:43 | 29.58543 | 120.83733 | 35108 ft | 547 kts | 19° |
| 2026-05-04 13:43 | 29.61860 | 120.86060 | 35101 ft | 559 kts | 28° |
| 2026-05-04 13:43 | 29.67565 | 120.92242 | 35112 ft | 577 kts | 46° |
| 2026-05-04 13:44 | 29.71734 | 121.00156 | 35129 ft | 586 kts | 62° |
| 2026-05-04 13:44 | 29.73515 | 121.04333 | 34986 ft | 585 kts | 59° |
| 2026-05-04 13:44 | 29.75490 | 121.08431 | 34175 ft | 587 kts | 55° |
| 2026-05-04 13:45 | 29.77646 | 121.12453 | 33159 ft | 589 kts | 53° |
| 2026-05-04 13:45 | 29.79866 | 121.16395 | 32231 ft | 590 kts | 52° |
| 2026-05-04 13:45 | 29.82093 | 121.20284 | 31292 ft | 591 kts | 53° |
| 2026-05-04 13:45 | 29.84358 | 121.24236 | 30331 ft | 592 kts | 52° |
| 2026-05-04 13:46 | 29.86633 | 121.28172 | 29348 ft | 591 kts | 51° |
| 2026-05-04 13:46 | 29.89139 | 121.31878 | 28347 ft | 584 kts | 44° |
| 2026-05-04 13:46 | 29.91937 | 121.35224 | 27327 ft | 572 kts | 37° |
| 2026-05-04 13:46 | 29.94958 | 121.38087 | 26383 ft | 556 kts | 29° |
| 2026-05-04 13:47 | 29.98195 | 121.40387 | 25501 ft | 542 kts | 20° |
| 2026-05-04 13:47 | 30.01573 | 121.42111 | 24664 ft | 527 kts | 15° |
| 2026-05-04 13:47 | 30.04919 | 121.43681 | 23830 ft | 519 kts | 17° |
| 2026-05-04 13:47 | 30.08170 | 121.45372 | 22869 ft | 511 kts | 20° |
| 2026-05-04 13:48 | 30.11361 | 121.47189 | 21982 ft | 503 kts | 21° |
| 2026-05-04 13:48 | 30.14417 | 121.49023 | 21052 ft | 494 kts | 22° |
| 2026-05-04 13:48 | 30.17405 | 121.50864 | 20179 ft | 483 kts | 23° |
| 2026-05-04 13:48 | 30.20321 | 121.52682 | 19285 ft | 473 kts | 24° |
| 2026-05-04 13:49 | 30.23183 | 121.54477 | 18400 ft | 462 kts | 24° |
| 2026-05-04 13:49 | 30.25977 | 121.56229 | 17609 ft | 454 kts | 25° |
| 2026-05-04 13:49 | 30.28717 | 121.57988 | 16704 ft | 445 kts | 26° |
| 2026-05-04 13:49 | 30.31399 | 121.59733 | 15927 ft | 439 kts | 26° |
| 2026-05-04 13:50 | 30.34045 | 121.61453 | 15075 ft | 431 kts | 26° |
| 2026-05-04 13:50 | 30.36611 | 121.63120 | 14320 ft | 425 kts | 26° |
| 2026-05-04 13:50 | 30.39139 | 121.64821 | 13719 ft | 420 kts | 29° |
| 2026-05-04 13:50 | 30.41638 | 121.66603 | 13134 ft | 417 kts | 30° |
| 2026-05-04 13:51 | 30.44098 | 121.68360 | 12868 ft | 412 kts | 30° |
| 2026-05-04 13:51 | 30.46503 | 121.70064 | 12733 ft | 408 kts | 30° |
| 2026-05-04 13:51 | 30.48964 | 121.71801 | 12736 ft | 409 kts | 29° |
| 2026-05-04 13:51 | 30.51392 | 121.73507 | 12729 ft | 411 kts | 29° |
| 2026-05-04 13:52 | 30.56350 | 121.76806 | 12722 ft | 411 kts | 23° |
| 2026-05-04 13:52 | 30.58971 | 121.78096 | 12732 ft | 410 kts | 20° |
| 2026-05-04 13:52 | 30.61608 | 121.79364 | 12725 ft | 410 kts | 20° |
| 2026-05-04 13:53 | 30.64258 | 121.80624 | 12758 ft | 412 kts | 20° |
| 2026-05-04 13:53 | 30.66910 | 121.81885 | 12723 ft | 411 kts | 20° |
| 2026-05-04 13:53 | 30.69635 | 121.82854 | 12705 ft | 407 kts | 7° |
| 2026-05-04 13:54 | 30.75280 | 121.83243 | 12719 ft | 405 kts | 3° |
| 2026-05-04 13:54 | 30.78088 | 121.83672 | 12731 ft | 406 kts | 7° |
| 2026-05-04 13:54 | 30.83611 | 121.84900 | 12190 ft | 403 kts | 10° |
| 2026-05-04 13:55 | 30.86316 | 121.85575 | 11729 ft | 391 kts | 10° |
| 2026-05-04 13:55 | 30.91448 | 121.86350 | 11337 ft | 352 kts | 354° |
| 2026-05-04 13:55 | 30.93790 | 121.85867 | 11153 ft | 330 kts | 340° |
| 2026-05-04 13:56 | 30.95818 | 121.84783 | 10951 ft | 308 kts | 327° |
| 2026-05-04 13:56 | 30.97466 | 121.83284 | 10566 ft | 294 kts | 320° |
| 2026-05-04 13:56 | 31.01065 | 121.81869 | 9969 ft | 272 kts | 9° |
| 2026-05-04 13:57 | 31.02808 | 121.82664 | 9944 ft | 275 kts | 28° |
| 2026-05-04 13:57 | 31.04423 | 121.83914 | 9917 ft | 278 kts | 32° |
| 2026-05-04 13:58 | 31.09098 | 121.87917 | 9909 ft | 277 kts | 33° |
| 2026-05-04 13:58 | 31.12199 | 121.90608 | 9844 ft | 277 kts | 33° |
| 2026-05-04 13:58 | 31.13746 | 121.91952 | 9809 ft | 276 kts | 33° |
| 2026-05-04 13:59 | 31.15281 | 121.93281 | 9807 ft | 276 kts | 33° |
| 2026-05-04 13:59 | 31.16837 | 121.94621 | 9807 ft | 277 kts | 33° |
| 2026-05-04 13:59 | 31.20368 | 121.95698 | 9700 ft | 266 kts | 349° |
| 2026-05-04 14:00 | 31.22199 | 121.95241 | 9680 ft | 264 kts | 345° |
| 2026-05-04 14:00 | 31.25615 | 121.94155 | 8988 ft | 241 kts | 343° |
| 2026-05-04 14:00 | 31.27201 | 121.93639 | 8573 ft | 233 kts | 343° |
| 2026-05-04 14:01 | 31.28735 | 121.93138 | 8130 ft | 226 kts | 343° |
| 2026-05-04 14:01 | 31.30246 | 121.92649 | 7631 ft | 221 kts | 343° |
| 2026-05-04 14:01 | 31.33179 | 121.91714 | 6525 ft | 218 kts | 343° |
| 2026-05-04 14:02 | 31.34640 | 121.91254 | 5947 ft | 218 kts | 343° |
| 2026-05-04 14:02 | 31.36128 | 121.90786 | 5309 ft | 219 kts | 343° |
| 2026-05-04 14:02 | 31.37603 | 121.90318 | 4712 ft | 220 kts | 343° |
| 2026-05-04 14:02 | 31.39071 | 121.89844 | 4108 ft | 222 kts | 339° |
| 2026-05-04 14:03 | 31.40354 | 121.88895 | 3488 ft | 216 kts | 303° |
| 2026-05-04 14:03 | 31.40877 | 121.87383 | 3228 ft | 196 kts | 269° |
| 2026-05-04 14:03 | 31.40738 | 121.85847 | 2817 ft | 189 kts | 256° |
| 2026-05-04 14:03 | 31.40426 | 121.84364 | 2366 ft | 188 kts | 253° |
| 2026-05-04 14:04 | 31.39403 | 121.81650 | 2063 ft | 183 kts | 228° |
| 2026-05-04 14:04 | 31.38522 | 121.80530 | 2029 ft | 184 kts | 222° |
| 2026-05-04 14:04 | 31.37588 | 121.79507 | 2016 ft | 183 kts | 220° |
| 2026-05-04 14:05 | 31.35673 | 121.77537 | 2011 ft | 183 kts | 219° |
| 2026-05-04 14:05 | 31.34702 | 121.76554 | 2007 ft | 183 kts | 218° |
| 2026-05-04 14:05 | 31.33677 | 121.75691 | 2010 ft | 181 kts | 201° |
| 2026-05-04 14:06 | 31.32463 | 121.75363 | 2025 ft | 181 kts | 175° |
| 2026-05-04 14:06 | 31.31225 | 121.75692 | 2040 ft | 181 kts | 161° |
| 2026-05-04 14:06 | 31.30040 | 121.76197 | 2009 ft | 180 kts | 160° |
| 2026-05-04 14:06 | 31.28867 | 121.76695 | 2008 ft | 180 kts | 161° |
| 2026-05-04 14:07 | 31.27677 | 121.77175 | 2008 ft | 180 kts | 161° |
| 2026-05-04 14:07 | 31.26522 | 121.77632 | 1995 ft | 168 kts | 161° |
| 2026-05-04 14:07 | 31.25444 | 121.78056 | 2002 ft | 158 kts | 162° |
| 2026-05-04 14:07 | 31.24408 | 121.78451 | 1974 ft | 158 kts | 162° |
| 2026-05-04 14:08 | 31.23320 | 121.78865 | 1598 ft | 165 kts | 162° |
| 2026-05-04 14:08 | 31.22214 | 121.79273 | 1443 ft | 168 kts | 163° |
| 2026-05-04 14:08 | 31.21082 | 121.79668 | 1265 ft | 172 kts | 163° |
| 2026-05-04 14:08 | 31.19939 | 121.80107 | 1009 ft | 173 kts | 160° |
| 2026-05-04 14:09 | 31.17654 | 121.81010 | 515 ft | 162 kts | 162° |
| 2026-05-04 14:09 | 31.16626 | 121.81385 | 158 ft | 148 kts | 161° |
| 2026-05-04 14:10 | 31.14945 | 121.82017 | 24 ft | 75 kts | 161° |
| 2026-05-04 14:10 | 31.14523 | 121.82170 | 24 ft | 46 kts | 169° |
| 2026-05-04 14:10 | 31.14322 | 121.82164 | 24 ft | 9 kts | 190° |
| 2026-05-04 14:10 | 31.14296 | 121.82159 | 24 ft | 1 kts | 190° |
| 2026-05-04 14:11 | 31.14273 | 121.82154 | 24 ft | 4 kts | 190° |
| 2026-05-04 14:11 | 31.14139 | 121.82130 | 24 ft | 17 kts | 180° |
| 2026-05-04 14:11 | 31.14015 | 121.82161 | 24 ft | 18 kts | 163° |
| 2026-05-04 14:12 | 31.13891 | 121.82207 | 24 ft | 18 kts | 162° |
| 2026-05-04 14:12 | 31.13775 | 121.82251 | 24 ft | 13 kts | 161° |
| 2026-05-04 14:12 | 31.13665 | 121.82241 | 24 ft | 7 kts | 247° |
| 2026-05-04 14:13 | 31.13638 | 121.82146 | 24 ft | 17 kts | 252° |
| 2026-05-04 14:13 | 31.13606 | 121.82031 | 24 ft | 13 kts | 252° |
| 2026-05-04 14:13 | 31.13581 | 121.81940 | 24 ft | 10 kts | 252° |
| 2026-05-04 14:13 | 31.13566 | 121.81870 | 24 ft | 8 kts | 275° |
| 2026-05-04 14:14 | 31.13611 | 121.81819 | 24 ft | 10 kts | 340° |
| 2026-05-04 14:14 | 31.13695 | 121.81784 | 24 ft | 0 kts | 343° |
| 2026-05-04 14:17 | 31.13706 | 121.81780 | 24 ft | 5 kts | 343° |
| 2026-05-04 14:17 | 31.13779 | 121.81754 | 24 ft | 15 kts | 343° |
| 2026-05-04 14:17 | 31.13990 | 121.81675 | 24 ft | 15 kts | 342° |
| 2026-05-04 14:18 | 31.14093 | 121.81636 | 24 ft | 14 kts | 342° |
| 2026-05-04 14:18 | 31.14271 | 121.81567 | 24 ft | 12 kts | 342° |
| 2026-05-04 14:19 | 31.14430 | 121.81508 | 24 ft | 11 kts | 342° |
| 2026-05-04 14:19 | 31.14500 | 121.81469 | 24 ft | 10 kts | 304° |
| 2026-05-04 14:19 | 31.14504 | 121.81391 | 24 ft | 9 kts | 255° |
| 2026-05-04 14:19 | 31.14486 | 121.81319 | 24 ft | 9 kts | 253° |
| 2026-05-04 14:20 | 31.14467 | 121.81244 | 24 ft | 9 kts | 253° |
| 2026-05-04 14:20 | 31.14443 | 121.81155 | 24 ft | 13 kts | 252° |
| 2026-05-04 14:20 | 31.14409 | 121.81039 | 24 ft | 16 kts | 251° |
| 2026-05-04 14:21 | 31.14346 | 121.80816 | 24 ft | 15 kts | 252° |
| 2026-05-04 14:21 | 31.14312 | 121.80694 | 24 ft | 15 kts | 252° |
| 2026-05-04 14:21 | 31.14279 | 121.80575 | 24 ft | 15 kts | 252° |
| 2026-05-04 14:21 | 31.14246 | 121.80460 | 24 ft | 14 kts | 252° |
| 2026-05-04 14:22 | 31.14215 | 121.80350 | 24 ft | 14 kts | 252° |
| 2026-05-04 14:22 | 31.14185 | 121.80241 | 24 ft | 13 kts | 252° |
| 2026-05-04 14:22 | 31.14156 | 121.80135 | 24 ft | 13 kts | 252° |
| 2026-05-04 14:22 | 31.14128 | 121.80032 | 24 ft | 13 kts | 252° |
| 2026-05-04 14:23 | 31.14091 | 121.79906 | 24 ft | 8 kts | 251° |
| 2026-05-04 14:23 | 31.14070 | 121.79833 | 24 ft | 10 kts | 252° |
| 2026-05-04 14:23 | 31.14049 | 121.79745 | 24 ft | 11 kts | 259° |
| 2026-05-04 14:24 | 31.14035 | 121.79653 | 24 ft | 11 kts | 264° |
| 2026-05-04 14:24 | 31.14077 | 121.79594 | 24 ft | 9 kts | 338° |
| 2026-05-04 14:24 | 31.14157 | 121.79559 | 24 ft | 16 kts | 340° |
| 2026-05-04 14:24 | 31.14289 | 121.79510 | 24 ft | 21 kts | 342° |
| 2026-05-04 14:25 | 31.14435 | 121.79456 | 24 ft | 21 kts | 342° |
| 2026-05-04 14:25 | 31.14708 | 121.79353 | 24 ft | 19 kts | 342° |
| 2026-05-04 14:25 | 31.14814 | 121.79312 | 24 ft | 9 kts | 335° |
| 2026-05-04 14:26 | 31.14850 | 121.79258 | 24 ft | 8 kts | 270° |
| 2026-05-04 14:26 | 31.14845 | 121.79230 | 24 ft | 0 kts | 257° |
| 2026-05-04 14:28 | 31.14845 | 121.79229 | 24 ft | 0 kts | 257° |
| 2026-05-04 14:28 | 31.14828 | 121.79163 | 24 ft | 15 kts | 252° |
| 2026-05-04 14:28 | 31.14787 | 121.79017 | 24 ft | 20 kts | 251° |
| 2026-05-04 14:28 | 31.14744 | 121.78860 | 24 ft | 19 kts | 252° |
| 2026-05-04 14:29 | 31.14725 | 121.78791 | 24 ft | 0 kts | 252° |
| 2026-05-04 14:29 | 31.14723 | 121.78786 | 24 ft | 2 kts | 252° |
| 2026-05-04 14:30 | 31.14709 | 121.78735 | 24 ft | 10 kts | 252° |
| 2026-05-04 14:30 | 31.14678 | 121.78625 | 24 ft | 17 kts | 252° |
| 2026-05-04 14:30 | 31.14620 | 121.78364 | 24 ft | 13 kts | 292° |
| 2026-05-04 14:31 | 31.14693 | 121.78313 | 24 ft | 12 kts | 341° |
| 2026-05-04 14:31 | 31.14825 | 121.78253 | 24 ft | 4 kts | 294° |
| 2026-05-04 14:32 | 31.14826 | 121.78195 | 24 ft | 3 kts | 256° |
| 2026-05-04 14:32 | 31.14820 | 121.78170 | 24 ft | 3 kts | 253° |
| 2026-05-04 14:32 | 31.14814 | 121.78149 | 24 ft | 2 kts | 252° |
| 2026-05-04 14:32 | 31.14812 | 121.78142 | 24 ft | 0 kts | 252° |
| 2026-05-04 14:33 | 31.14812 | 121.78140 | 24 ft | 1 kts | 251° |
| 2026-05-04 14:33 | 31.14811 | 121.78136 | 24 ft | 0 kts | 252° |